createdAt,value
2022-12-13T00:01:34.688Z,10.03
2022-12-13T00:04:04.658Z,9.53
2022-12-13T00:06:32.039Z,10.03
2022-12-13T00:08:59.995Z,9.30
2022-12-13T00:11:27.626Z,9.90
2022-12-13T00:13:54.949Z,10.03
2022-12-13T00:16:23.375Z,9.07
2022-12-13T00:18:54.162Z,9.13
2022-12-13T00:21:22.483Z,8.60
2022-12-13T00:23:50.644Z,9.30
2022-12-13T00:26:20.054Z,8.00
2022-12-13T00:28:49.475Z,7.97
2022-12-13T00:31:53.497Z,8.13
2022-12-13T00:34:07.248Z,8.63
2022-12-13T00:36:34.218Z,8.80
2022-12-13T00:39:01.222Z,9.17
2022-12-13T00:41:31.626Z,8.53
2022-12-13T00:43:59.703Z,7.67
2022-12-13T00:46:27.709Z,8.17
2022-12-13T00:49:00.273Z,9.03
2022-12-13T00:51:28.748Z,7.43
2022-12-13T00:53:56.029Z,7.53
2022-12-13T00:56:25.836Z,7.87
2022-12-13T00:58:53.845Z,8.43
2022-12-13T01:01:26.395Z,8.03
2022-12-13T01:03:54.733Z,9.00
2022-12-13T01:06:27.512Z,8.27
2022-12-13T01:08:54.572Z,8.43
2022-12-13T01:11:21.654Z,8.33
2022-12-13T01:13:48.694Z,7.80
2022-12-13T01:16:15.614Z,6.87
2022-12-13T01:18:43.225Z,7.83
2022-12-13T01:21:22.209Z,8.03
2022-12-13T01:23:49.441Z,7.57
2022-12-13T01:26:19.240Z,8.27
2022-12-13T01:28:46.557Z,8.30
2022-12-13T01:31:16.265Z,7.53
2022-12-13T01:33:43.581Z,7.57
2022-12-13T01:36:13.839Z,7.53
2022-12-13T01:38:40.758Z,7.80
2022-12-13T01:41:16.716Z,7.30
2022-12-13T01:43:45.224Z,7.87
2022-12-13T01:46:13.261Z,7.10
2022-12-13T01:48:45.190Z,6.70
2022-12-13T01:51:13.871Z,6.40
2022-12-13T01:53:42.203Z,7.80
2022-12-13T01:56:12.098Z,6.97
2022-12-13T01:58:39.582Z,7.27
2022-12-13T02:01:06.570Z,6.33
2022-12-13T02:03:34.185Z,7.07
2022-12-13T02:06:08.180Z,6.90
2022-12-13T02:08:36.069Z,7.67
2022-12-13T02:11:05.464Z,6.97
2022-12-13T02:13:32.392Z,6.67
2022-12-13T02:16:26.677Z,7.03
2022-12-13T02:19:31.858Z,6.97
2022-12-13T02:22:31.321Z,6.93
2022-12-13T02:25:10.332Z,6.30
2022-12-13T02:28:30.422Z,5.93
2022-12-13T02:30:58.885Z,6.30
2022-12-13T02:33:30.716Z,7.20
2022-12-13T02:36:16.273Z,7.20
2022-12-13T02:38:46.187Z,6.70
2022-12-13T02:41:17.864Z,6.53
2022-12-13T02:44:01.468Z,6.83
2022-12-13T02:46:31.634Z,6.47
2022-12-13T02:49:00.167Z,7.20
2022-12-13T02:51:27.596Z,6.47
2022-12-13T02:53:54.463Z,7.50
2022-12-13T02:56:21.485Z,6.50
2022-12-13T02:58:51.314Z,6.93
2022-12-13T03:01:50.066Z,6.77
2022-12-13T03:04:24.837Z,6.73
2022-12-13T03:07:08.050Z,5.97
2022-12-13T03:09:56.565Z,6.10
2022-12-13T03:12:56.627Z,6.53
2022-12-13T03:15:26.313Z,6.67
2022-12-13T03:18:16.254Z,6.80
2022-12-13T03:21:00.618Z,6.80
2022-12-13T03:23:28.135Z,6.57
2022-12-13T03:25:57.902Z,6.60
2022-12-13T03:28:24.838Z,6.70
2022-12-13T03:30:51.846Z,7.10
2022-12-13T03:33:18.896Z,6.67
2022-12-13T03:35:46.127Z,6.20
2022-12-13T03:38:21.540Z,7.47
2022-12-13T03:40:54.822Z,5.93
2022-12-13T03:43:22.945Z,6.53
2022-12-13T03:45:53.400Z,6.20
2022-12-13T03:48:21.667Z,6.83
2022-12-13T03:50:51.442Z,6.23
2022-12-13T03:53:23.429Z,5.60
2022-12-13T03:56:02.019Z,6.03
2022-12-13T03:58:35.054Z,6.90
2022-12-13T04:01:11.346Z,7.03
2022-12-13T04:03:39.627Z,6.77
2022-12-13T04:06:07.617Z,6.50
2022-12-13T04:08:35.902Z,6.87
2022-12-13T04:11:23.235Z,6.20
2022-12-13T04:13:50.129Z,6.10
2022-12-13T04:16:17.197Z,6.20
2022-12-13T04:18:44.342Z,7.03
2022-12-13T04:21:11.284Z,6.60
2022-12-13T04:23:38.239Z,6.53
2022-12-13T04:26:05.220Z,7.20
2022-12-13T04:28:32.151Z,7.30
2022-12-13T04:30:59.082Z,6.10
2022-12-13T04:33:25.959Z,6.07
2022-12-13T04:35:53.067Z,6.13
2022-12-13T04:38:20.411Z,6.13
2022-12-13T04:40:47.332Z,5.93
2022-12-13T04:43:14.285Z,6.00
2022-12-13T04:45:41.277Z,6.20
2022-12-13T04:48:08.365Z,6.63
2022-12-13T04:50:35.279Z,6.87
2022-12-13T04:53:02.205Z,6.43
2022-12-13T04:55:29.113Z,6.33
2022-12-13T04:57:55.999Z,6.17
2022-12-13T05:00:23.452Z,6.07
2022-12-13T05:02:50.541Z,7.03
2022-12-13T05:05:17.946Z,5.97
2022-12-13T05:07:45.213Z,6.60
2022-12-13T05:10:12.215Z,6.17
2022-12-13T05:12:39.271Z,6.60
2022-12-13T05:15:06.873Z,6.93
2022-12-13T05:17:34.200Z,6.80
2022-12-13T05:20:01.195Z,7.57
2022-12-13T05:22:28.150Z,5.93
2022-12-13T05:24:55.133Z,5.90
2022-12-13T05:27:26.304Z,5.67
2022-12-13T05:30:02.993Z,6.37
2022-12-13T05:32:43.197Z,7.50
2022-12-13T05:35:22.755Z,7.20
2022-12-13T05:37:53.339Z,7.60
2022-12-13T05:40:22.373Z,6.83
2022-12-13T05:42:49.222Z,6.83
2022-12-13T05:45:18.077Z,6.27
2022-12-13T05:47:45.366Z,6.80
2022-12-13T05:50:13.255Z,6.07
2022-12-13T05:52:40.317Z,6.63
2022-12-13T05:55:07.808Z,6.60
2022-12-13T05:57:34.782Z,6.70
2022-12-13T06:00:01.739Z,7.63
2022-12-13T06:02:28.881Z,7.03
2022-12-13T06:04:55.821Z,7.03
2022-12-13T06:07:22.700Z,7.10
2022-12-13T06:09:49.597Z,6.27
2022-12-13T06:12:31.158Z,6.57
2022-12-13T06:15:01.265Z,6.27
2022-12-13T06:17:36.209Z,7.70
2022-12-13T06:20:24.259Z,7.13
2022-12-13T06:22:55.012Z,7.23
2022-12-13T06:25:30.880Z,7.67
2022-12-13T06:28:00.781Z,7.00
2022-12-13T06:30:29.100Z,7.40
2022-12-13T06:32:56.154Z,7.27
2022-12-13T06:35:28.522Z,7.63
2022-12-13T06:38:01.477Z,7.20
2022-12-13T06:40:32.436Z,7.67
2022-12-13T06:42:59.378Z,8.07
2022-12-13T06:45:26.943Z,7.87
2022-12-13T06:47:53.807Z,6.90
2022-12-13T06:50:20.710Z,8.07
2022-12-13T06:52:47.617Z,8.30
2022-12-13T06:55:14.910Z,8.10
2022-12-13T06:57:50.661Z,8.57
2022-12-13T07:00:21.660Z,10.80
2022-12-13T07:02:56.931Z,10.53
2022-12-13T07:05:25.185Z,11.53
2022-12-13T07:07:52.231Z,10.83
2022-12-13T07:10:22.212Z,12.57
2022-12-13T07:12:49.771Z,11.57
2022-12-13T07:15:16.832Z,12.77
2022-12-13T07:17:43.907Z,10.83
2022-12-13T07:20:13.770Z,10.07
2022-12-13T07:22:46.995Z,10.33
2022-12-13T07:25:27.503Z,9.57
2022-12-13T07:28:01.594Z,9.30
2022-12-13T07:30:31.432Z,8.70
2022-12-13T07:32:58.430Z,9.83
2022-12-13T07:35:25.329Z,9.33
2022-12-13T07:37:52.194Z,9.43
2022-12-13T07:40:19.105Z,9.60
2022-12-13T07:42:55.278Z,9.13
2022-12-13T07:45:23.631Z,9.00
2022-12-13T07:47:50.529Z,8.93
2022-12-13T07:50:24.277Z,9.20
2022-12-13T07:52:53.080Z,9.87
2022-12-13T07:55:23.083Z,9.13
2022-12-13T07:58:10.826Z,9.33
2022-12-13T08:00:45.978Z,8.17
2022-12-13T08:03:24.976Z,9.37
2022-12-13T08:06:00.355Z,8.73
2022-12-13T08:08:30.988Z,9.87
2022-12-13T08:11:04.126Z,10.47
2022-12-13T08:13:31.087Z,9.27
2022-12-13T08:16:02.523Z,9.57
2022-12-13T08:18:30.285Z,10.43
2022-12-13T08:21:14.057Z,9.53
2022-12-13T08:23:52.326Z,10.67
2022-12-13T08:26:19.231Z,10.63
2022-12-13T08:28:46.163Z,11.60
2022-12-13T08:31:14.601Z,12.07
2022-12-13T08:33:43.819Z,9.67
2022-12-13T08:36:18.498Z,10.73
2022-12-13T08:38:45.731Z,10.47
2022-12-13T08:41:13.569Z,9.40
2022-12-13T08:43:40.507Z,9.60
2022-12-13T08:46:07.714Z,9.80
2022-12-13T08:48:34.800Z,10.53
2022-12-13T08:51:13.079Z,10.10
2022-12-13T08:53:40.771Z,9.33
2022-12-13T08:56:11.984Z,9.73
2022-12-13T08:58:39.713Z,10.07
2022-12-13T09:01:09.862Z,9.60
2022-12-13T09:03:37.639Z,10.27
2022-12-13T09:06:08.146Z,10.73
2022-12-13T09:08:35.330Z,10.83
2022-12-13T09:11:11.231Z,9.10
2022-12-13T09:13:50.079Z,10.00
2022-12-13T09:16:26.036Z,9.70
2022-12-13T09:18:54.750Z,9.83
2022-12-13T09:21:31.707Z,9.40
2022-12-13T09:24:01.890Z,9.10
2022-12-13T09:26:29.379Z,9.47
2022-12-13T09:29:10.784Z,11.23
2022-12-13T09:31:40.766Z,10.10
2022-12-13T09:34:09.105Z,10.07
2022-12-13T09:36:36.059Z,10.37
2022-12-13T09:39:03.227Z,10.13
2022-12-13T09:41:41.438Z,9.80
2022-12-13T09:44:43.807Z,9.93
2022-12-13T09:47:23.210Z,10.70
2022-12-13T09:49:52.350Z,9.73
2022-12-13T09:52:23.004Z,10.93
2022-12-13T09:54:54.312Z,10.00
2022-12-13T09:57:31.940Z,10.07
2022-12-13T10:00:02.715Z,10.87
2022-12-13T10:02:35.156Z,9.90
2022-12-13T10:05:23.563Z,10.40
2022-12-13T10:07:55.024Z,11.97
2022-12-13T10:10:22.395Z,10.53
2022-12-13T10:13:08.897Z,10.83
2022-12-13T10:15:38.722Z,10.53
2022-12-13T10:18:07.503Z,10.67
2022-12-13T10:20:35.165Z,10.53
2022-12-13T10:23:31.544Z,10.10
2022-12-13T10:25:51.946Z,11.73
2022-12-13T10:28:21.032Z,10.70
2022-12-13T10:30:47.883Z,11.20
2022-12-13T10:33:49.859Z,11.57
2022-12-13T10:36:29.313Z,10.93
2022-12-13T10:38:56.496Z,10.87
2022-12-13T10:41:38.305Z,10.97
2022-12-13T10:44:20.279Z,10.20
2022-12-13T10:47:10.379Z,10.73
2022-12-13T10:49:50.202Z,10.80
2022-12-13T10:52:43.886Z,11.13
2022-12-13T10:55:33.626Z,10.70
2022-12-13T10:58:09.819Z,10.60
2022-12-13T11:00:45.645Z,10.27
2022-12-13T11:03:33.736Z,11.67
2022-12-13T11:06:20.112Z,10.20
2022-12-13T11:08:47.078Z,11.20
2022-12-13T11:11:17.673Z,11.83
2022-12-13T11:13:45.503Z,11.40
2022-12-13T11:16:18.411Z,10.67
2022-12-13T11:18:51.402Z,11.53
2022-12-13T11:21:27.483Z,11.70
2022-12-13T11:23:56.486Z,11.33
2022-12-13T11:26:30.168Z,11.37
2022-12-13T11:29:19.709Z,11.10
2022-12-13T11:32:06.209Z,11.30
2022-12-13T11:35:11.493Z,11.20
2022-12-13T11:37:59.447Z,11.43
2022-12-13T11:40:29.773Z,12.20
2022-12-13T11:43:06.347Z,11.83
2022-12-13T11:45:46.853Z,10.93
2022-12-13T11:48:18.219Z,11.63
2022-12-13T11:50:50.916Z,11.33
2022-12-13T11:53:45.416Z,11.37
2022-12-13T11:56:24.192Z,11.80
2022-12-13T11:59:11.335Z,11.27
2022-12-13T12:01:51.909Z,11.47
2022-12-13T12:05:00.429Z,11.63
2022-12-13T12:07:36.735Z,12.37
2022-12-13T12:10:18.501Z,11.47
2022-12-13T12:12:50.864Z,11.03
2022-12-13T12:15:41.835Z,12.20
2022-12-13T12:18:15.833Z,11.83
2022-12-13T12:21:11.151Z,11.80
2022-12-13T12:23:52.868Z,11.30
2022-12-13T12:26:26.583Z,11.53
2022-12-13T12:29:12.129Z,12.27
2022-12-13T12:31:50.923Z,12.50
2022-12-13T12:34:56.796Z,10.93
2022-12-13T12:38:01.757Z,12.17
2022-12-13T12:41:21.188Z,12.23
2022-12-13T12:43:56.792Z,11.63
2022-12-13T12:47:18.079Z,12.17
2022-12-13T12:50:13.344Z,12.77
2022-12-13T12:52:51.821Z,12.23
2022-12-13T12:55:42.337Z,12.73
2022-12-13T12:58:20.808Z,11.87
2022-12-13T13:01:07.236Z,12.20
2022-12-13T13:03:36.730Z,11.53
2022-12-13T13:06:13.301Z,12.53
2022-12-13T13:08:55.238Z,11.80
2022-12-13T13:11:25.949Z,12.53
2022-12-13T13:14:01.894Z,12.47
2022-12-13T13:16:41.216Z,12.20
2022-12-13T13:19:34.011Z,11.40
2022-12-13T13:22:02.613Z,12.07
2022-12-13T13:24:33.334Z,12.60
2022-12-13T13:27:09.160Z,12.63
2022-12-13T13:29:38.465Z,12.33
2022-12-13T13:32:28.723Z,13.07
2022-12-13T13:35:28.830Z,12.23
2022-12-13T13:37:58.101Z,11.83
2022-12-13T13:40:30.495Z,11.93
2022-12-13T13:43:05.559Z,12.73
2022-12-13T13:45:51.113Z,12.87
2022-12-13T13:48:43.277Z,12.80
2022-12-13T13:51:15.874Z,12.63
2022-12-13T13:53:56.221Z,11.97
2022-12-13T13:56:25.793Z,13.20
2022-12-13T13:59:15.038Z,13.20
2022-12-13T14:01:45.054Z,12.47
2022-12-13T14:04:42.948Z,13.20
2022-12-13T14:07:57.963Z,12.60
2022-12-13T14:10:35.471Z,12.73
2022-12-13T14:13:50.017Z,11.97
2022-12-13T14:16:33.747Z,12.70
2022-12-13T14:19:37.910Z,11.90
2022-12-13T14:22:08.381Z,12.37
2022-12-13T14:24:43.362Z,12.93
2022-12-13T14:27:10.521Z,12.77
2022-12-13T14:29:48.889Z,12.80
2022-12-13T14:32:29.724Z,13.47
2022-12-13T14:34:57.588Z,12.37
2022-12-13T14:37:32.943Z,13.17
2022-12-13T14:40:01.257Z,12.60
2022-12-13T14:42:30.908Z,13.83
2022-12-13T14:45:19.069Z,12.87
2022-12-13T14:47:46.079Z,13.10
2022-12-13T14:50:18.143Z,12.80
2022-12-13T14:52:46.054Z,12.63
2022-12-13T14:55:36.667Z,13.07
2022-12-13T14:58:16.318Z,12.43
2022-12-13T15:00:43.924Z,12.20
2022-12-13T15:03:24.722Z,12.53
2022-12-13T15:06:00.321Z,13.17
2022-12-13T15:08:28.000Z,13.77
2022-12-13T15:10:57.329Z,13.33
2022-12-13T15:13:45.076Z,12.77
2022-12-13T15:16:25.862Z,13.40
2022-12-13T15:19:11.033Z,13.30
2022-12-13T15:21:38.212Z,12.87
2022-12-13T15:24:05.767Z,13.40
2022-12-13T15:26:33.443Z,13.70
2022-12-13T15:29:09.865Z,12.53
2022-12-13T15:31:38.623Z,14.23
2022-12-13T15:34:35.224Z,13.47
2022-12-13T15:37:28.682Z,13.40
2022-12-13T15:40:00.247Z,13.67
2022-12-13T15:42:33.341Z,14.70
2022-12-13T15:45:06.162Z,14.43
2022-12-13T15:47:33.506Z,13.60
2022-12-13T15:50:06.111Z,13.30
2022-12-13T15:52:38.792Z,13.53
2022-12-13T15:55:05.596Z,13.33
2022-12-13T15:57:34.811Z,13.63
2022-12-13T16:00:08.642Z,12.33
2022-12-13T16:02:35.981Z,12.10
2022-12-13T16:05:10.825Z,12.63
2022-12-13T16:07:40.375Z,12.50
2022-12-13T16:10:08.692Z,13.03
2022-12-13T16:12:47.578Z,13.30
2022-12-13T16:15:29.478Z,14.70
2022-12-13T16:18:13.009Z,13.63
2022-12-13T16:20:39.964Z,13.30
2022-12-13T16:23:09.017Z,13.20
2022-12-13T16:25:36.500Z,14.10
2022-12-13T16:28:03.603Z,14.07
2022-12-13T16:30:53.727Z,13.30
2022-12-13T16:33:30.284Z,14.03
2022-12-13T16:35:57.593Z,14.73
2022-12-13T16:38:27.251Z,13.60
2022-12-13T16:40:55.983Z,14.40
2022-12-13T16:43:32.802Z,13.80
2022-12-13T16:47:18.242Z,13.03
2022-12-13T16:48:49.891Z,13.47
2022-12-13T16:51:16.922Z,13.03
2022-12-13T16:53:44.042Z,14.83
2022-12-13T16:56:14.690Z,12.77
2022-12-13T16:58:44.763Z,12.77
2022-12-13T17:01:20.378Z,14.57
2022-12-13T17:03:47.646Z,13.60
2022-12-13T17:06:16.723Z,13.17
2022-12-13T17:08:43.637Z,13.47
2022-12-13T17:11:16.100Z,13.63
2022-12-13T17:13:44.869Z,13.20
2022-12-13T17:16:11.835Z,13.37
2022-12-13T17:18:40.042Z,13.47
2022-12-13T17:21:08.357Z,12.27
2022-12-13T17:23:35.301Z,13.73
2022-12-13T17:26:10.189Z,12.90
2022-12-13T17:28:37.461Z,13.60
2022-12-13T17:31:09.020Z,13.00
2022-12-13T17:33:36.589Z,13.37
2022-12-13T17:36:04.727Z,13.73
2022-12-13T17:38:31.623Z,14.03
2022-12-13T17:41:00.797Z,13.30
2022-12-13T17:43:34.512Z,13.30
2022-12-13T17:46:07.388Z,12.53
2022-12-13T17:48:40.492Z,13.17
2022-12-13T17:51:09.133Z,13.63
2022-12-13T17:53:37.103Z,13.53
2022-12-13T17:56:06.659Z,13.37
2022-12-13T17:58:33.717Z,13.53
2022-12-13T18:01:13.229Z,13.17
2022-12-13T18:03:40.429Z,13.50
2022-12-13T18:06:07.835Z,13.27
2022-12-13T18:08:36.564Z,14.57
2022-12-13T18:13:55.236Z,13.13
2022-12-13T18:16:23.532Z,14.40
2022-12-13T18:18:54.692Z,14.20
2022-12-13T18:21:23.605Z,13.63
2022-12-13T18:23:55.664Z,14.90
2022-12-13T18:26:24.169Z,14.03
2022-12-13T18:28:51.605Z,13.93
2022-12-13T18:31:22.220Z,13.23
2022-12-13T18:33:50.429Z,13.13
2022-12-13T18:36:17.965Z,13.27
2022-12-13T18:38:45.041Z,14.63
2022-12-13T18:41:15.168Z,13.53
2022-12-13T18:43:43.273Z,15.70
2022-12-13T18:46:11.401Z,13.90
2022-12-13T18:48:38.595Z,14.67
2022-12-13T18:51:07.940Z,14.30
2022-12-13T18:53:35.464Z,14.83
2022-12-13T18:56:11.631Z,14.73
2022-12-13T18:58:43.147Z,14.73
2022-12-13T19:01:12.908Z,14.97
2022-12-13T19:03:39.888Z,13.53
2022-12-13T19:06:07.524Z,14.33
2022-12-13T19:08:36.678Z,14.83
2022-12-13T19:11:04.334Z,13.57
2022-12-13T19:13:32.536Z,16.37
2022-12-13T19:16:06.180Z,14.47
2022-12-13T19:18:33.667Z,14.97
2022-12-13T19:21:00.646Z,14.57
2022-12-13T19:23:27.891Z,15.27
2022-12-13T19:25:55.250Z,13.77
2022-12-13T19:28:22.115Z,15.07
2022-12-13T19:30:49.196Z,14.10
2022-12-13T19:33:17.478Z,15.07
2022-12-13T19:35:46.787Z,15.67
2022-12-13T19:38:14.241Z,15.77
2022-12-13T19:40:44.155Z,14.77
2022-12-13T19:43:11.687Z,15.07
2022-12-13T19:45:39.129Z,15.50
2022-12-13T19:48:06.081Z,14.77
2022-12-13T19:50:33.009Z,15.67
2022-12-13T19:52:59.895Z,16.57
2022-12-13T19:55:26.792Z,16.07
2022-12-13T19:57:53.742Z,15.47
2022-12-13T20:00:20.679Z,14.27
2022-12-13T20:02:47.776Z,16.73
2022-12-13T20:05:14.752Z,16.23
2022-12-13T20:07:41.717Z,15.73
2022-12-13T20:10:09.157Z,16.43
2022-12-13T20:12:40.666Z,15.93
2022-12-13T20:15:08.663Z,17.20
2022-12-13T20:17:36.122Z,16.20
2022-12-13T20:20:04.335Z,16.87
2022-12-13T20:22:32.859Z,17.13
2022-12-13T20:24:59.909Z,18.47
2022-12-13T20:27:27.693Z,17.17
2022-12-13T20:29:54.675Z,19.63
2022-12-13T20:32:21.631Z,17.87
2022-12-13T20:34:54.383Z,17.97
2022-12-13T20:37:21.797Z,17.63
2022-12-13T20:39:49.292Z,17.40
2022-12-13T20:42:16.308Z,17.07
2022-12-13T20:44:43.225Z,17.23
2022-12-13T20:47:10.410Z,16.80
2022-12-13T20:49:37.441Z,17.37
2022-12-13T20:52:04.544Z,17.70
2022-12-13T20:54:31.682Z,17.37
2022-12-13T20:56:58.547Z,16.50
2022-12-13T20:59:25.634Z,16.60
2022-12-13T21:01:52.607Z,17.27
2022-12-13T21:04:19.552Z,16.67
2022-12-13T21:06:46.445Z,17.07
2022-12-13T21:09:13.366Z,17.60
2022-12-13T21:11:47.263Z,16.77
2022-12-13T21:14:21.160Z,16.30
2022-12-13T21:16:53.749Z,17.10
2022-12-13T21:19:37.473Z,16.53
2022-12-13T21:22:06.238Z,18.17
2022-12-13T21:24:33.093Z,17.00
2022-12-13T21:27:00.220Z,17.57
2022-12-13T21:29:27.914Z,17.63
2022-12-13T21:31:55.420Z,18.80
2022-12-13T21:34:22.694Z,18.43
2022-12-13T21:36:52.555Z,17.73
2022-12-13T21:39:24.495Z,18.10
2022-12-13T21:41:51.540Z,17.27
2022-12-13T21:44:18.874Z,17.87
2022-12-13T21:49:33.329Z,18.50
2022-12-13T21:52:00.279Z,17.93
2022-12-13T21:54:27.233Z,18.00
2022-12-13T21:57:12.471Z,18.73
2022-12-13T21:59:39.498Z,16.07
2022-12-13T22:02:13.311Z,18.20
2022-12-13T22:04:55.123Z,17.37
2022-12-13T22:07:27.637Z,17.37
2022-12-13T22:09:55.510Z,18.53
2022-12-13T22:12:22.463Z,18.53
2022-12-13T22:14:49.844Z,19.40
2022-12-13T22:17:17.585Z,17.50
2022-12-13T22:19:44.500Z,19.47
2022-12-13T22:22:17.076Z,19.23
2022-12-13T22:24:48.433Z,17.50
2022-12-13T22:27:24.088Z,18.00
2022-12-13T22:29:58.417Z,17.37
2022-12-13T22:32:27.566Z,16.90
2022-12-13T22:34:54.680Z,18.43
2022-12-13T22:37:22.019Z,18.00
2022-12-13T22:39:48.953Z,18.67
2022-12-13T22:42:15.969Z,18.50
2022-12-13T22:44:42.860Z,18.93
2022-12-13T22:47:09.766Z,17.77
2022-12-13T22:49:36.666Z,17.27
2022-12-13T22:52:03.709Z,17.50
2022-12-13T22:54:30.563Z,17.47
2022-12-13T22:56:57.453Z,17.53
2022-12-13T22:59:24.557Z,18.60
2022-12-13T23:01:54.362Z,17.97
2022-12-13T23:04:23.777Z,18.07
2022-12-13T23:06:50.746Z,17.03
2022-12-13T23:09:17.601Z,16.90
2022-12-13T23:12:02.871Z,17.90
2022-12-13T23:14:34.330Z,17.83
2022-12-13T23:17:02.500Z,19.03
2022-12-13T23:19:49.989Z,17.37
2022-12-13T23:22:17.005Z,17.43
2022-12-13T23:24:44.000Z,19.77
2022-12-13T23:27:10.873Z,17.17
2022-12-13T23:29:37.959Z,17.47
2022-12-13T23:32:05.061Z,18.50
2022-12-13T23:34:31.995Z,18.60
2022-12-13T23:36:59.232Z,17.77
2022-12-13T23:39:26.120Z,17.37
2022-12-13T23:41:52.992Z,16.83
2022-12-13T23:44:19.977Z,17.23
2022-12-13T23:46:48.797Z,19.37
2022-12-13T23:49:16.449Z,17.53
2022-12-13T23:51:43.404Z,16.60
2022-12-13T23:54:14.772Z,16.27
2022-12-13T23:56:41.672Z,17.00
2022-12-13T23:59:08.960Z,16.80
